KHVR/HVR METAR and TAF weather

Enter ICAO airport designator
Station Type Date Time Source
KHVR METAR 2021/01/27 13:53 UTC NOAA

KHVR 271353Z AUTO 09005KT 10SM CLR M17/M19 A2987 RMK AO2 SLP168 I1000 T11671189


Station Type Date Time Source
KHVR Decoded METAR 2021/01/27 13:53 UTC NOAA

HAVRE CITY-COUNTY AIRPORT, MT, United States (KHVR) 48-33N 109-46W 787M
Jan 27, 2021 - 08:53 AM EST / 2021.01.27 1353 UTC
Wind: from the E (090 degrees) at 6 MPH (5 KT):0
Visibility: 10 mile(s):0
Sky conditions: clear
Temperature: 1.9 F (-16.7 C)
Windchill: -9 F (-23 C):2
Dew Point: -2.0 F (-18.9 C)
Relative Humidity: 83%
Pressure (altimeter): 29.87 in. Hg (1011 hPa)
ob: KHVR 271353Z AUTO 09005KT 10SM CLR M17/M19 A2987 RMK AO2 SLP168 I1000 T11671189
cycle: 14

Station Type Date Time Source
KHVR TAF 2021/01/27 12:22 UTC NOAA

TAF KHVR 271120Z 2712/2812 07007KT P6SM FEW008 SCT250
FM280300 09008KT P6SM BKN120
FM280400 VRB06KT P6SM SCT120 SCT200

Example: see airport list